createdAt,value
2023-05-11T00:04:28.420Z,10.30
2023-05-11T00:09:31.237Z,11.82
2023-05-11T00:14:34.024Z,10.18
2023-05-11T00:19:36.765Z,11.10
2023-05-11T00:24:39.480Z,8.60
2023-05-11T00:29:42.455Z,12.70
2023-05-11T00:34:46.022Z,17.48
2023-05-11T00:39:48.778Z,11.85
2023-05-11T00:44:51.612Z,13.95
2023-05-11T00:49:54.947Z,12.15
2023-05-11T00:54:57.718Z,11.93
2023-05-11T01:00:03.847Z,9.85
2023-05-11T01:05:10.844Z,9.95
2023-05-11T01:10:31.511Z,11.65
2023-05-11T01:15:43.641Z,15.20
2023-05-11T01:20:52.167Z,9.18
2023-05-11T01:26:30.653Z,10.30
2023-05-11T01:31:35.529Z,18.88
2023-05-11T01:36:44.634Z,12.65
2023-05-11T01:41:52.620Z,8.60
2023-05-11T01:46:56.601Z,12.10
2023-05-11T01:52:01.788Z,11.30
2023-05-11T01:57:07.045Z,8.30
2023-05-11T02:02:10.608Z,12.57
2023-05-11T02:07:14.594Z,16.50
2023-05-11T02:12:20.064Z,12.02
2023-05-11T02:17:25.263Z,11.88
2023-05-11T02:22:29.764Z,12.45
2023-05-11T02:27:33.191Z,9.00
2023-05-11T02:32:39.153Z,11.73
2023-05-11T02:37:45.484Z,9.07
2023-05-11T02:42:57.183Z,16.52
2023-05-11T02:48:05.951Z,11.55
2023-05-11T02:53:14.951Z,15.70
2023-05-11T02:58:20.412Z,16.65
2023-05-11T03:03:30.135Z,11.13
2023-05-11T03:08:33.315Z,18.20
2023-05-11T03:13:37.409Z,13.30
2023-05-11T03:18:42.220Z,21.42
2023-05-11T03:23:46.224Z,18.45
2023-05-11T03:28:52.509Z,17.10
2023-05-11T03:33:55.866Z,14.30
2023-05-11T03:39:02.122Z,26.58
2023-05-11T03:44:11.093Z,18.70
2023-05-11T03:49:18.644Z,20.65
2023-05-11T03:54:21.567Z,15.98
2023-05-11T03:59:26.402Z,14.65
2023-05-11T04:04:30.837Z,13.73
2023-05-11T04:09:36.365Z,17.38
2023-05-11T04:14:39.095Z,23.58
2023-05-11T04:19:41.801Z,27.00
2023-05-11T04:24:44.632Z,16.08
2023-05-11T04:29:48.780Z,17.85
2023-05-11T04:34:52.801Z,16.50
2023-05-11T04:39:58.661Z,19.30
2023-05-11T04:45:01.813Z,21.90
2023-05-11T04:50:07.748Z,14.38
2023-05-11T04:55:11.723Z,19.50
2023-05-11T05:00:15.849Z,10.82
2023-05-11T05:05:18.985Z,17.25
2023-05-11T05:10:22.152Z,17.05
2023-05-11T05:15:25.143Z,17.35
2023-05-11T05:20:27.904Z,16.20
2023-05-11T05:25:30.655Z,9.30
2023-05-11T05:30:33.495Z,12.63
2023-05-11T05:35:36.379Z,12.40
2023-05-11T05:40:40.272Z,12.80
2023-05-11T05:45:43.955Z,15.55
2023-05-11T05:50:47.338Z,9.98
2023-05-11T05:55:50.363Z,16.95
2023-05-11T06:00:53.576Z,7.70
2023-05-11T06:05:56.292Z,6.65
2023-05-11T06:10:59.528Z,4.75
2023-05-11T06:16:02.306Z,6.18
2023-05-11T06:21:08.948Z,8.50
2023-05-11T06:26:12.219Z,9.80
2023-05-11T06:31:15.804Z,6.68
2023-05-11T06:36:19.621Z,8.27
2023-05-11T06:41:22.755Z,4.35
2023-05-11T06:46:27.381Z,9.32
2023-05-11T06:51:30.839Z,7.13
2023-05-11T06:56:34.257Z,4.97
2023-05-11T07:01:37.094Z,5.15
2023-05-11T07:06:39.722Z,4.35
2023-05-11T07:11:42.399Z,5.40
2023-05-11T07:16:46.588Z,5.88
2023-05-11T07:21:49.368Z,4.40
2023-05-11T07:26:52.122Z,6.35
2023-05-11T07:31:54.890Z,4.38
2023-05-11T07:36:57.861Z,9.63
2023-05-11T07:42:00.597Z,7.82
2023-05-11T07:47:03.267Z,3.75
2023-05-11T07:52:06.031Z,5.53
2023-05-11T07:57:09.139Z,6.30
2023-05-11T08:02:13.307Z,8.85
2023-05-11T08:07:16.626Z,8.35
2023-05-11T08:12:19.274Z,7.15
2023-05-11T08:17:22.026Z,6.28
2023-05-11T08:22:24.838Z,6.72
2023-05-11T08:27:27.502Z,11.88
2023-05-11T08:32:30.501Z,6.57
2023-05-11T08:37:33.321Z,3.28
2023-05-11T08:42:40.098Z,7.95
2023-05-11T08:47:42.896Z,7.80
2023-05-11T08:52:46.334Z,3.63
2023-05-11T08:57:51.754Z,5.35
2023-05-11T09:02:56.090Z,9.40
2023-05-11T09:08:06.275Z,4.53
2023-05-11T09:13:09.604Z,5.03
2023-05-11T09:18:13.448Z,6.53
2023-05-11T09:23:17.607Z,3.70
2023-05-11T09:28:27.229Z,7.28
2023-05-11T09:33:30.067Z,10.02
2023-05-11T09:38:33.096Z,7.60
2023-05-11T09:43:35.777Z,5.22
2023-05-11T09:48:38.593Z,7.53
2023-05-11T09:53:46.293Z,3.65
2023-05-11T09:58:51.654Z,3.35
2023-05-11T10:04:00.392Z,7.50
2023-05-11T10:09:13.057Z,3.55
2023-05-11T10:14:16.697Z,2.78
2023-05-11T10:19:19.872Z,2.65
2023-05-11T10:24:23.284Z,2.72
2023-05-11T10:29:26.841Z,5.70
2023-05-11T10:34:30.130Z,2.50
2023-05-11T10:39:33.386Z,5.57
2023-05-11T10:44:40.711Z,3.50
2023-05-11T10:50:05.199Z,7.88
2023-05-11T10:55:28.736Z,5.30
2023-05-11T11:00:50.336Z,6.45
2023-05-11T11:10:56.505Z,4.68
2023-05-11T11:16:00.871Z,5.20
2023-05-11T11:21:04.630Z,5.78
2023-05-11T11:26:08.595Z,5.00
2023-05-11T11:31:28.200Z,3.78
2023-05-11T11:36:55.530Z,1.70
2023-05-11T11:42:06.798Z,8.05
2023-05-11T11:47:12.953Z,6.88
2023-05-11T11:52:28.697Z,4.72
2023-05-11T11:57:34.250Z,12.30
2023-05-11T12:02:41.931Z,7.60
2023-05-11T12:07:48.456Z,5.20
2023-05-11T12:12:55.145Z,5.30
2023-05-11T12:17:58.580Z,4.95
2023-05-11T12:23:01.679Z,6.95
2023-05-11T12:28:04.909Z,5.32
2023-05-11T12:33:08.345Z,8.02
2023-05-11T12:38:11.804Z,8.77
2023-05-11T12:43:18.372Z,7.50
2023-05-11T12:48:21.397Z,4.25
2023-05-11T12:53:24.118Z,12.60
2023-05-11T12:58:26.945Z,5.70
2023-05-11T13:03:31.664Z,4.32
2023-05-11T13:08:39.088Z,3.20
2023-05-11T13:13:42.379Z,3.63
2023-05-11T13:19:00.782Z,4.05
2023-05-11T13:24:04.136Z,3.25
2023-05-11T13:29:11.207Z,3.38
2023-05-11T13:34:14.640Z,9.55
2023-05-11T13:39:17.447Z,3.95
2023-05-11T13:44:20.161Z,2.13
2023-05-11T13:49:22.986Z,4.63
2023-05-11T13:54:25.697Z,11.63
2023-05-11T13:59:28.556Z,4.50
2023-05-11T14:04:31.471Z,2.83
2023-05-11T14:09:34.361Z,3.88
2023-05-11T14:14:37.013Z,4.72
2023-05-11T14:19:40.429Z,2.55
2023-05-11T14:24:43.159Z,10.35
2023-05-11T14:29:45.955Z,6.72
2023-05-11T14:34:48.905Z,6.43
2023-05-11T14:39:51.592Z,3.40
2023-05-11T14:44:54.361Z,5.50
2023-05-11T14:49:57.080Z,4.95
2023-05-11T14:54:59.890Z,4.03
2023-05-11T15:00:03.215Z,4.57
2023-05-11T15:05:10.638Z,4.05
2023-05-11T15:10:13.298Z,7.18
2023-05-11T15:15:16.699Z,5.57
2023-05-11T15:20:19.841Z,9.20
2023-05-11T15:25:22.595Z,6.50
2023-05-11T15:30:25.491Z,7.90
2023-05-11T15:35:28.230Z,12.40
2023-05-11T15:40:30.954Z,13.80
2023-05-11T15:45:33.983Z,17.17
2023-05-11T15:50:36.793Z,6.55
2023-05-11T15:55:41.101Z,10.60
2023-05-11T16:00:43.876Z,25.83
2023-05-11T16:05:46.790Z,14.57
2023-05-11T16:10:49.499Z,10.00
2023-05-11T16:15:52.512Z,10.57
2023-05-11T16:20:55.172Z,4.22
2023-05-11T16:25:58.036Z,3.78
2023-05-11T16:31:01.083Z,3.83
2023-05-11T16:36:05.704Z,2.35
2023-05-11T16:41:08.453Z,3.42
2023-05-11T16:46:11.270Z,3.75
2023-05-11T16:51:14.179Z,3.17
2023-05-11T16:56:17.669Z,1.90
2023-05-11T17:01:21.643Z,4.68
2023-05-11T17:06:26.914Z,4.57
2023-05-11T17:11:29.625Z,3.70
2023-05-11T17:16:32.515Z,2.50
2023-05-11T17:21:35.253Z,4.13
2023-05-11T17:26:47.020Z,2.88
2023-05-11T17:31:51.820Z,7.68
2023-05-11T17:36:55.233Z,23.15
2023-05-11T17:41:58.155Z,10.82
2023-05-11T17:47:00.896Z,8.70
2023-05-11T17:52:03.695Z,10.05
2023-05-11T17:57:06.525Z,6.55
2023-05-11T18:02:10.308Z,7.30
2023-05-11T18:07:12.964Z,9.05
2023-05-11T18:12:16.328Z,12.85
2023-05-11T18:17:19.267Z,8.40
2023-05-11T18:22:23.311Z,6.95
2023-05-11T18:27:26.118Z,11.43
2023-05-11T18:32:28.768Z,7.90
2023-05-11T18:37:31.871Z,6.10
2023-05-11T18:42:37.754Z,7.65
2023-05-11T18:47:44.537Z,9.65
2023-05-11T18:52:47.456Z,12.43
2023-05-11T18:57:50.704Z,5.97
2023-05-11T19:02:56.231Z,15.60
2023-05-11T19:07:59.064Z,14.77
2023-05-11T19:13:01.700Z,42.58
2023-05-11T19:18:05.639Z,19.05
2023-05-11T19:23:08.327Z,10.38
2023-05-11T19:28:11.142Z,15.57
2023-05-11T19:33:13.820Z,15.50
2023-05-11T19:38:16.731Z,10.90
2023-05-11T19:43:19.861Z,14.13
2023-05-11T19:48:22.886Z,8.40
2023-05-11T19:53:27.410Z,11.05
2023-05-11T19:58:34.467Z,14.80
2023-05-11T20:03:38.821Z,21.05
2023-05-11T20:08:47.899Z,21.70
2023-05-11T20:13:53.613Z,16.70
2023-05-11T20:18:59.533Z,21.15
2023-05-11T20:24:02.862Z,31.73
2023-05-11T20:29:09.713Z,25.35
2023-05-11T20:34:12.878Z,29.75
2023-05-11T20:39:17.668Z,30.77
2023-05-11T20:44:20.336Z,25.70
2023-05-11T20:49:37.692Z,14.30
2023-05-11T20:54:41.765Z,18.00
2023-05-11T21:04:50.062Z,13.00
2023-05-11T21:09:52.874Z,18.38
2023-05-11T21:14:56.987Z,10.55
2023-05-11T21:20:00.063Z,11.75
2023-05-11T21:25:04.100Z,13.73
2023-05-11T21:30:10.153Z,12.95
2023-05-11T21:35:15.053Z,10.13
2023-05-11T21:40:18.275Z,13.88
2023-05-11T21:45:21.546Z,10.25
2023-05-11T21:50:24.518Z,16.45
2023-05-11T21:55:27.225Z,8.38
2023-05-11T22:00:29.993Z,11.85
2023-05-11T22:05:32.651Z,13.27
2023-05-11T22:10:35.269Z,10.77
2023-05-11T22:15:38.476Z,15.80
2023-05-11T22:20:41.184Z,14.57
2023-05-11T22:25:44.508Z,14.85
2023-05-11T22:30:47.247Z,18.98
2023-05-11T22:35:49.888Z,16.05
2023-05-11T22:40:52.743Z,15.15
2023-05-11T22:45:55.633Z,13.63
2023-05-11T22:50:58.329Z,8.32
2023-05-11T22:56:05.641Z,10.50
2023-05-11T23:01:08.916Z,10.35
2023-05-11T23:06:12.409Z,12.65
2023-05-11T23:11:15.520Z,8.85
2023-05-11T23:16:19.423Z,10.55
2023-05-11T23:21:22.077Z,11.18
2023-05-11T23:26:24.908Z,14.43
2023-05-11T23:31:28.555Z,15.57
2023-05-11T23:36:31.349Z,15.32
2023-05-11T23:41:33.980Z,15.85
2023-05-11T23:46:36.768Z,14.40
2023-05-11T23:51:39.634Z,11.82
2023-05-11T23:56:44.314Z,11.18
